Time;durP1;ratioP1;P1;durP2;ratioP2;P2;SDS_P1;SDS_P2;PMS_P1;PMS_P2;Temp;Humidity;BMP_temperature;BMP_pressure;BME280_temperature;BME280_humidity;BME280_pressure;Samples;Min_cycle;Max_cycle;Signal;HPM_P1;HPM_P2
2021/12/11 00:00:22;;;;;;;22.35;14.63;;;;;;;;;;5053921;28;20482;-71
2021/12/11 00:02:56;;;;;;;27.85;15.63;;;;;;;;;;5072793;28;20416;-71
2021/12/11 00:05:23;;;;;;;25.08;15.23;;;;;;;;;;5070995;28;20040;-71
2021/12/11 00:07:49;;;;;;;21.33;14.15;;;;;;;;;;5068295;28;20051;-71
2021/12/11 00:10:20;;;;;;;24.88;14.88;;;;;;;;;;5095663;28;20072;-71
2021/12/11 00:12:52;;;;;;;17.90;13.73;;;;;;;;;;5068836;28;20032;-71
2021/12/11 00:15:21;;;;;;;28.63;15.80;;;;;;;;;;5070474;28;20040;-72
2021/12/11 00:17:47;;;;;;;23.13;13.77;;;;;;;;;;5073471;28;20068;-71
2021/12/11 00:20:18;;;;;;;22.48;14.98;;;;;;;;;;5067156;28;20494;-71
2021/12/11 00:22:45;;;;;;;26.08;15.15;;;;;;;;;;5062262;28;20049;-71
2021/12/11 00:25:12;;;;;;;35.72;16.05;;;;;;;;;;5071341;28;20042;-72
2021/12/11 00:27:41;;;;;;;23.85;15.88;;;;;;;;;;5069588;28;20474;-71
2021/12/11 00:30:10;;;;;;;23.73;15.27;;;;;;;;;;5095467;28;20036;-71
2021/12/11 00:32:36;;;;;;;27.52;14.55;;;;;;;;;;5067542;28;20037;-71
2021/12/11 00:35:05;;;;;;;19.08;13.95;;;;;;;;;;5065731;28;20123;-71
2021/12/11 00:37:32;;;;;;;19.15;14.38;;;;;;;;;;5068442;28;20174;-71
2021/12/11 00:40:07;;;;;;;18.50;13.48;;;;;;;;;;5038113;28;20036;-71
2021/12/11 00:42:34;;;;;;;23.80;14.38;;;;;;;;;;5057228;28;20045;-71
2021/12/11 00:45:20;;;;;;;24.70;15.63;;;;;;;;;;5068357;28;20036;-71
2021/12/11 00:47:51;;;;;;;18.83;13.43;;;;;;;;;;5069208;28;20040;-71
2021/12/11 00:50:19;;;;;;;20.52;13.50;;;;;;;;;;5069585;28;20165;-71
2021/12/11 00:52:45;;;;;;;21.80;13.25;;;;;;;;;;5071575;28;20498;-71
2021/12/11 00:55:28;;;;;;;26.98;14.57;;;;;;;;;;5063742;28;20036;-71
2021/12/11 00:57:54;;;;;;;;;;;;;;;;;;5064118;28;20052;-71
2021/12/11 01:00:23;;;;;;;22.25;14.27;;;;;;;;;;5101850;28;19920;-71
2021/12/11 01:02:57;;;;;;;26.33;14.88;;;;;;;;;;5063097;28;20044;-70
2021/12/11 01:05:24;;;;;;;25.48;14.43;;;;;;;;;;5068338;28;20044;-71
2021/12/11 01:07:50;;;;;;;25.00;14.93;;;;;;;;;;5072546;28;20037;-72
2021/12/11 01:10:24;;;;;;;23.80;13.90;;;;;;;;;;5066886;28;20581;-71
2021/12/11 01:12:56;;;;;;;20.77;13.13;;;;;;;;;;5068896;28;20038;-71
2021/12/11 01:15:40;;;;;;;20.58;12.98;;;;;;;;;;5099680;28;20522;-71
2021/12/11 01:21:14;;;;;;;25.63;13.57;;;;;;;;;;5058202;28;19921;-71
2021/12/11 01:26:13;;;;;;;24.38;14.73;;;;;;;;;;5070360;28;20619;-71
2021/12/11 01:28:40;;;;;;;24.45;14.27;;;;;;;;;;5071751;28;20067;-71
2021/12/11 01:31:08;;;;;;;21.02;13.10;;;;;;;;;;5071900;28;20041;-71
2021/12/11 01:33:35;;;;;;;20.15;14.82;;;;;;;;;;5072194;28;20036;-71
2021/12/11 01:36:02;;;;;;;22.42;13.85;;;;;;;;;;5061200;28;20044;-71
2021/12/11 01:38:30;;;;;;;24.08;14.27;;;;;;;;;;5049734;28;20037;-71
2021/12/11 01:40:58;;;;;;;26.25;14.02;;;;;;;;;;5071356;28;20094;-71
2021/12/11 01:43:25;;;;;;;24.48;14.32;;;;;;;;;;5074577;28;20488;-71
2021/12/11 01:45:52;;;;;;;25.02;14.73;;;;;;;;;;5073512;28;20072;-71
2021/12/11 01:48:19;;;;;;;24.92;13.75;;;;;;;;;;5055532;28;20409;-71
2021/12/11 01:50:47;;;;;;;21.55;13.10;;;;;;;;;;5074975;28;20040;-71
2021/12/11 01:53:20;;;;;;;23.30;13.23;;;;;;;;;;5072903;28;20041;-71
2021/12/11 01:55:47;;;;;;;20.70;13.18;;;;;;;;;;5068756;28;20063;-71
2021/12/11 01:58:16;;;;;;;21.05;13.93;;;;;;;;;;5074753;28;20485;-71
2021/12/11 02:00:45;;;;;;;20.88;13.93;;;;;;;;;;5073570;28;20524;-71
2021/12/11 02:03:17;;;;;;;19.73;13.55;;;;;;;;;;5065519;28;20040;-71
2021/12/11 02:05:44;;;;;;;20.58;12.52;;;;;;;;;;5067992;28;20045;-70
2021/12/11 02:08:13;;;;;;;19.77;12.70;;;;;;;;;;5073055;28;20043;-71
2021/12/11 02:10:51;;;;;;;16.98;12.85;;;;;;;;;;5065787;28;20092;-72
2021/12/11 02:13:23;;;;;;;23.17;13.52;;;;;;;;;;5071799;28;20041;-71
2021/12/11 02:15:52;;;;;;;20.80;13.43;;;;;;;;;;5073075;28;20044;-71
2021/12/11 02:18:23;;;;;;;17.75;12.15;;;;;;;;;;5074788;28;20032;-72
2021/12/11 02:21:00;;;;;;;20.95;13.48;;;;;;;;;;5066825;28;20039;-71
2021/12/11 02:23:27;;;;;;;23.20;14.98;;;;;;;;;;5070531;28;20048;-71
2021/12/11 02:25:55;;;;;;;22.63;15.65;;;;;;;;;;5074762;28;20156;-71
2021/12/11 02:28:35;;;;;;;22.02;14.50;;;;;;;;;;5066140;28;20032;-71
2021/12/11 02:31:06;;;;;;;19.65;12.65;;;;;;;;;;5061692;28;20139;-70
2021/12/11 02:33:39;;;;;;;20.67;12.52;;;;;;;;;;5099400;28;20501;-70
2021/12/11 02:36:11;;;;;;;23.83;12.20;;;;;;;;;;5074521;28;20044;-71
2021/12/11 02:38:44;;;;;;;27.17;15.95;;;;;;;;;;5069619;28;20493;-71
2021/12/11 02:41:23;;;;;;;21.77;14.80;;;;;;;;;;5053408;28;20043;-71
2021/12/11 02:43:55;;;;;;;25.48;15.75;;;;;;;;;;5081207;28;20164;-71
2021/12/11 02:46:25;;;;;;;18.33;14.45;;;;;;;;;;5073763;28;20040;-71
2021/12/11 02:48:55;;;;;;;23.70;14.95;;;;;;;;;;5070761;28;20040;-71
2021/12/11 02:51:26;;;;;;;25.70;16.15;;;;;;;;;;5071311;28;20041;-71
2021/12/11 02:53:56;;;;;;;27.58;15.82;;;;;;;;;;5075527;28;20541;-71
2021/12/11 02:56:31;;;;;;;21.45;14.30;;;;;;;;;;5067226;28;20040;-71
2021/12/11 02:58:58;;;;;;;19.98;13.73;;;;;;;;;;5076438;28;20115;-71
2021/12/11 03:01:28;;;;;;;22.95;14.23;;;;;;;;;;5074992;28;20033;-71
2021/12/11 03:04:09;;;;;;;16.83;11.85;;;;;;;;;;5071554;28;20086;-71
2021/12/11 03:06:43;;;;;;;21.67;13.70;;;;;;;;;;5072754;28;20090;-71
2021/12/11 03:09:10;;;;;;;26.35;14.27;;;;;;;;;;5068400;28;20041;-71
2021/12/11 03:11:36;;;;;;;19.38;13.25;;;;;;;;;;5071805;28;20097;-71
2021/12/11 03:14:04;;;;;;;20.13;14.02;;;;;;;;;;5075605;28;20040;-72
2021/12/11 03:16:33;;;;;;;19.90;12.77;;;;;;;;;;5059574;28;20037;-71
2021/12/11 03:18:59;;;;;;;19.52;12.38;;;;;;;;;;5073402;28;20068;-71
2021/12/11 03:21:26;;;;;;;23.08;14.07;;;;;;;;;;5070843;28;20490;-73
2021/12/11 03:23:54;;;;;;;27.02;15.18;;;;;;;;;;5074422;28;20051;-72
2021/12/11 03:26:21;;;;;;;24.13;13.77;;;;;;;;;;5098905;27;20483;-72
2021/12/11 03:28:47;;;;;;;21.85;12.93;;;;;;;;;;5064520;28;20063;-72
2021/12/11 03:31:13;;;;;;;19.33;13.23;;;;;;;;;;5067918;28;20044;-72
2021/12/11 03:33:42;;;;;;;22.17;12.63;;;;;;;;;;5072117;28;20485;-71
2021/12/11 03:36:09;;;;;;;22.80;14.13;;;;;;;;;;5070777;28;20036;-72
2021/12/11 03:38:36;;;;;;;21.05;14.27;;;;;;;;;;5071893;28;20032;-71
2021/12/11 03:41:04;;;;;;;24.48;13.70;;;;;;;;;;5074192;28;20036;-71
2021/12/11 03:43:30;;;;;;;21.42;13.77;;;;;;;;;;5066327;28;20047;-71
2021/12/11 03:45:58;;;;;;;26.23;14.60;;;;;;;;;;5069981;28;20043;-71
2021/12/11 03:48:31;;;;;;;19.70;13.38;;;;;;;;;;5082747;28;20045;-71
2021/12/11 03:50:57;;;;;;;19.25;12.10;;;;;;;;;;5068075;28;20041;-72
2021/12/11 03:53:24;;;;;;;19.77;13.52;;;;;;;;;;5099685;28;20439;-72
2021/12/11 03:55:53;;;;;;;23.52;13.80;;;;;;;;;;5076363;28;20049;-71
2021/12/11 03:58:19;;;;;;;22.10;13.40;;;;;;;;;;5068749;28;20039;-71
2021/12/11 04:00:51;;;;;;;18.35;12.07;;;;;;;;;;5068109;28;20024;-72
2021/12/11 04:03:19;;;;;;;24.40;13.53;;;;;;;;;;5070584;28;20040;-71
2021/12/11 04:05:46;;;;;;;21.45;11.00;;;;;;;;;;5062393;28;20094;-71
2021/12/11 04:08:15;;;;;;;16.67;11.68;;;;;;;;;;5072882;28;20050;-71
2021/12/11 04:10:41;;;;;;;22.33;12.77;;;;;;;;;;5067915;28;20537;-71
2021/12/11 04:13:10;;;;;;;21.98;13.77;;;;;;;;;;5074361;28;20068;-72
2021/12/11 04:15:40;;;;;;;15.55;11.77;;;;;;;;;;5073888;28;20083;-72
2021/12/11 04:18:09;;;;;;;20.02;13.50;;;;;;;;;;5067286;28;20080;-71
2021/12/11 04:20:39;;;;;;;17.35;12.77;;;;;;;;;;5076404;28;20048;-71
2021/12/11 04:23:07;;;;;;;16.90;11.38;;;;;;;;;;5101734;28;20053;-71
2021/12/11 04:25:33;;;;;;;18.58;12.55;;;;;;;;;;5095422;28;20509;-71
2021/12/11 04:27:59;;;;;;;19.95;13.07;;;;;;;;;;5070532;28;20444;-71
2021/12/11 04:30:28;;;;;;;19.33;12.32;;;;;;;;;;5105554;28;20482;-71
2021/12/11 04:32:55;;;;;;;25.42;14.60;;;;;;;;;;5070018;28;20033;-72
2021/12/11 04:35:21;;;;;;;19.98;12.18;;;;;;;;;;5071292;28;20032;-71
2021/12/11 04:37:49;;;;;;;28.65;14.48;;;;;;;;;;5071371;28;20036;-71
2021/12/11 04:40:17;;;;;;;23.23;12.70;;;;;;;;;;5056124;28;20044;-71
2021/12/11 04:43:01;;;;;;;19.92;12.50;;;;;;;;;;5069659;28;20129;-72
2021/12/11 04:45:33;;;;;;;21.58;11.70;;;;;;;;;;5094837;28;20043;-71
2021/12/11 04:48:08;;;;;;;21.80;13.35;;;;;;;;;;5064375;28;20114;-71
2021/12/11 04:50:44;;;;;;;18.92;11.23;;;;;;;;;;5071431;28;20118;-72
2021/12/11 04:53:21;;;;;;;20.55;11.18;;;;;;;;;;5063193;28;20039;-72
2021/12/11 04:56:19;;;;;;;21.55;12.02;;;;;;;;;;5071217;28;20044;-71
2021/12/11 05:01:34;;;;;;;16.65;11.40;;;;;;;;;;5061254;28;20053;-71
2021/12/11 05:04:37;;;;;;;20.95;11.60;;;;;;;;;;5065587;28;20053;-72
2021/12/11 05:07:24;;;;;;;17.90;13.43;;;;;;;;;;5070876;28;20182;-72
2021/12/11 05:09:58;;;;;;;21.02;13.00;;;;;;;;;;5070441;28;20108;-71
2021/12/11 05:14:51;;;;;;;18.15;11.70;;;;;;;;;;5069601;28;20044;-71
2021/12/11 05:17:18;;;;;;;19.05;12.23;;;;;;;;;;5068345;28;20040;-71
2021/12/11 05:19:45;;;;;;;19.60;11.45;;;;;;;;;;5064538;28;20051;-71
2021/12/11 05:22:12;;;;;;;16.30;11.48;;;;;;;;;;5080223;28;20049;-71
2021/12/11 05:24:40;;;;;;;21.25;12.27;;;;;;;;;;5071058;28;20049;-71
2021/12/11 05:27:06;;;;;;;20.13;12.85;;;;;;;;;;5067923;28;20429;-72
2021/12/11 05:29:33;;;;;;;25.50;11.43;;;;;;;;;;5068653;28;20106;-71
2021/12/11 05:31:59;;;;;;;18.15;12.50;;;;;;;;;;5064283;28;20051;-71
2021/12/11 05:34:25;;;;;;;19.88;11.95;;;;;;;;;;5065160;28;20508;-71
2021/12/11 05:36:52;;;;;;;22.75;12.88;;;;;;;;;;5059791;28;20045;-71
2021/12/11 05:39:20;;;;;;;23.75;13.80;;;;;;;;;;5071745;28;20036;-71
2021/12/11 05:41:47;;;;;;;24.48;12.90;;;;;;;;;;5068615;28;20102;-71
2021/12/11 05:44:14;;;;;;;19.30;11.20;;;;;;;;;;5067235;28;20086;-71
2021/12/11 05:46:40;;;;;;;19.23;11.52;;;;;;;;;;5069715;28;20040;-71
2021/12/11 05:49:07;;;;;;;22.25;13.15;;;;;;;;;;5069638;28;20049;-71
2021/12/11 05:51:38;;;;;;;20.65;12.85;;;;;;;;;;5052802;28;20055;-72
2021/12/11 05:54:05;;;;;;;21.48;12.65;;;;;;;;;;5066492;28;20564;-71
2021/12/11 05:56:35;;;;;;;17.73;12.00;;;;;;;;;;5067328;28;20052;-72
2021/12/11 05:59:01;;;;;;;21.73;13.25;;;;;;;;;;5069432;28;20502;-71
2021/12/11 06:01:31;;;;;;;22.38;12.88;;;;;;;;;;5061589;28;20040;-72
2021/12/11 06:03:59;;;;;;;20.30;12.93;;;;;;;;;;5066123;28;20044;-71
2021/12/11 06:06:25;;;;;;;18.75;12.02;;;;;;;;;;5072164;28;20032;-71
2021/12/11 06:08:51;;;;;;;21.00;13.32;;;;;;;;;;5053280;28;20458;-71
2021/12/11 06:11:17;;;;;;;20.80;12.43;;;;;;;;;;5102420;28;20101;-72
2021/12/11 06:13:43;;;;;;;18.83;11.95;;;;;;;;;;5061449;28;20571;-71
2021/12/11 06:16:10;;;;;;;17.02;11.32;;;;;;;;;;5067294;28;20513;-71
2021/12/11 06:18:37;;;;;;;21.77;12.10;;;;;;;;;;5071844;28;20032;-71
2021/12/11 06:21:03;;;;;;;21.75;12.43;;;;;;;;;;5063471;28;20120;-71
2021/12/11 06:23:30;;;;;;;26.13;13.07;;;;;;;;;;5065391;28;20052;-71
2021/12/11 06:25:56;;;;;;;20.90;13.18;;;;;;;;;;5066665;28;20567;-71
2021/12/11 06:28:24;;;;;;;17.63;12.32;;;;;;;;;;5071194;28;20093;-71
2021/12/11 06:30:50;;;;;;;19.35;11.85;;;;;;;;;;5066334;28;20075;-71
2021/12/11 06:33:16;;;;;;;18.25;12.38;;;;;;;;;;5066252;28;20037;-71
2021/12/11 06:35:45;;;;;;;17.35;11.88;;;;;;;;;;5069971;28;20036;-71
2021/12/11 06:38:13;;;;;;;22.80;12.18;;;;;;;;;;5073940;28;20480;-71
2021/12/11 06:40:39;;;;;;;19.63;12.52;;;;;;;;;;5054471;28;20041;-71
2021/12/11 06:43:05;;;;;;;19.00;12.85;;;;;;;;;;5055810;28;20126;-71
2021/12/11 06:45:32;;;;;;;20.65;12.90;;;;;;;;;;5066385;28;20151;-71
2021/12/11 06:47:58;;;;;;;22.08;12.77;;;;;;;;;;5070982;28;20037;-71
2021/12/11 06:50:24;;;;;;;23.77;13.82;;;;;;;;;;5070296;28;20041;-70
2021/12/11 06:52:51;;;;;;;26.45;14.85;;;;;;;;;;5070226;28;20036;-71
2021/12/11 06:55:18;;;;;;;27.20;16.10;;;;;;;;;;5101321;27;20119;-71
2021/12/11 06:57:44;;;;;;;24.73;15.43;;;;;;;;;;5108872;27;20080;-70
2021/12/11 07:00:11;;;;;;;26.00;15.60;;;;;;;;;;5072088;28;20041;-71
2021/12/11 07:02:39;;;;;;;27.17;15.07;;;;;;;;;;5068607;28;20064;-71
2021/12/11 07:05:05;;;;;;;22.58;15.60;;;;;;;;;;5081850;28;20041;-71
2021/12/11 07:07:34;;;;;;;24.80;16.10;;;;;;;;;;5071476;28;20029;-72
2021/12/11 07:10:02;;;;;;;25.40;15.35;;;;;;;;;;5070967;28;20060;-71
2021/12/11 07:12:28;;;;;;;29.70;18.25;;;;;;;;;;5102978;28;20542;-71
2021/12/11 07:14:55;;;;;;;32.05;18.83;;;;;;;;;;5063710;28;20044;-71
2021/12/11 07:17:21;;;;;;;30.70;17.10;;;;;;;;;;5063284;28;20042;-71
2021/12/11 07:19:48;;;;;;;27.67;17.27;;;;;;;;;;5071426;28;20107;-70
2021/12/11 07:22:14;;;;;;;32.67;19.83;;;;;;;;;;5070580;28;20059;-71
2021/12/11 07:24:47;;;;;;;24.60;17.10;;;;;;;;;;5071164;28;20036;-71
2021/12/11 07:27:14;;;;;;;30.30;17.52;;;;;;;;;;5069981;28;20044;-71
2021/12/11 07:29:40;;;;;;;25.90;17.48;;;;;;;;;;5061355;28;20094;-71
2021/12/11 07:32:07;;;;;;;29.70;15.27;;;;;;;;;;5068937;28;20033;-71
2021/12/11 07:34:33;;;;;;;20.58;13.48;;;;;;;;;;5064452;28;20422;-71
2021/12/11 07:37:01;;;;;;;23.02;13.32;;;;;;;;;;5068642;28;20577;-71
2021/12/11 07:39:28;;;;;;;24.35;15.15;;;;;;;;;;5068140;28;20044;-71
2021/12/11 07:41:55;;;;;;;25.55;15.73;;;;;;;;;;5067625;28;20364;-71
2021/12/11 07:44:22;;;;;;;24.02;14.18;;;;;;;;;;5073589;28;20024;-71
2021/12/11 07:46:48;;;;;;;21.70;13.27;;;;;;;;;;5068748;28;20041;-71
2021/12/11 07:49:15;;;;;;;20.77;14.35;;;;;;;;;;5070631;28;20036;-73
2021/12/11 07:51:41;;;;;;;30.10;15.50;;;;;;;;;;5068925;28;20115;-71
2021/12/11 07:54:08;;;;;;;35.40;17.42;;;;;;;;;;5069251;28;20045;-71
2021/12/11 07:56:35;;;;;;;55.60;21.60;;;;;;;;;;5068631;28;20045;-71
2021/12/11 07:59:03;;;;;;;53.00;21.75;;;;;;;;;;5062150;28;20048;-71
2021/12/11 08:01:30;;;;;;;38.10;17.50;;;;;;;;;;5068746;28;20466;-71
2021/12/11 08:03:57;;;;;;;31.85;16.88;;;;;;;;;;5067059;28;20376;-71
2021/12/11 08:06:23;;;;;;;29.55;17.35;;;;;;;;;;5067063;28;20045;-71
2021/12/11 08:08:49;;;;;;;60.45;20.40;;;;;;;;;;5066681;28;20067;-71
2021/12/11 08:11:17;;;;;;;41.85;18.75;;;;;;;;;;5066178;28;20039;-71
2021/12/11 08:13:44;;;;;;;39.03;19.50;;;;;;;;;;5070336;28;20045;-71
2021/12/11 08:16:12;;;;;;;105.90;26.00;;;;;;;;;;5066008;28;20537;-71
2021/12/11 08:18:38;;;;;;;24.77;17.90;;;;;;;;;;5068919;28;20045;-71
2021/12/11 08:21:05;;;;;;;74.20;23.17;;;;;;;;;;5070030;28;20040;-71
2021/12/11 08:23:32;;;;;;;42.85;22.35;;;;;;;;;;5068739;28;20056;-71
2021/12/11 08:25:59;;;;;;;27.30;17.67;;;;;;;;;;5069586;28;20059;-71
2021/12/11 08:28:27;;;;;;;42.47;17.85;;;;;;;;;;5069981;28;20041;-71
2021/12/11 08:30:53;;;;;;;117.63;24.75;;;;;;;;;;5070044;28;20068;-71
2021/12/11 08:33:20;;;;;;;70.13;19.55;;;;;;;;;;5069140;28;20044;-71
2021/12/11 08:35:46;;;;;;;123.18;22.20;;;;;;;;;;5065364;28;20055;-71
2021/12/11 08:38:12;;;;;;;244.25;30.17;;;;;;;;;;5053271;28;20099;-70
2021/12/11 08:40:40;;;;;;;150.48;24.05;;;;;;;;;;5067194;28;20037;-71
2021/12/11 08:43:08;;;;;;;83.07;21.08;;;;;;;;;;5065413;28;20048;-71
2021/12/11 08:45:45;;;;;;;146.70;24.40;;;;;;;;;;5069423;28;20040;-71
2021/12/11 08:48:12;;;;;;;98.28;20.08;;;;;;;;;;5069036;28;20036;-72
2021/12/11 08:50:38;;;;;;;143.38;24.33;;;;;;;;;;5060538;28;20102;-71
2021/12/11 08:53:05;;;;;;;203.00;27.42;;;;;;;;;;5068903;28;20102;-71
2021/12/11 08:55:33;;;;;;;160.30;24.95;;;;;;;;;;5059572;28;20051;-71
2021/12/11 08:58:01;;;;;;;165.05;24.63;;;;;;;;;;5062012;28;20124;-71
2021/12/11 09:00:27;;;;;;;98.90;22.42;;;;;;;;;;5068298;28;20036;-71
2021/12/11 09:02:56;;;;;;;98.25;23.55;;;;;;;;;;5099160;28;20045;-71
2021/12/11 09:05:26;;;;;;;91.03;23.45;;;;;;;;;;5068625;28;20075;-71
2021/12/11 09:07:58;;;;;;;40.35;19.75;;;;;;;;;;5068446;28;20127;-71
2021/12/11 09:10:27;;;;;;;116.85;25.77;;;;;;;;;;5067757;28;20045;-71
2021/12/11 09:12:59;;;;;;;88.07;23.90;;;;;;;;;;5065845;28;20041;-71
2021/12/11 09:15:30;;;;;;;98.50;26.30;;;;;;;;;;5058487;28;20047;-71
2021/12/11 09:17:59;;;;;;;77.65;25.08;;;;;;;;;;5064973;28;20060;-71
2021/12/11 09:20:37;;;;;;;169.55;29.45;;;;;;;;;;5069315;28;20032;-71
2021/12/11 09:23:16;;;;;;;117.47;25.90;;;;;;;;;;5049742;28;20048;-71
2021/12/11 09:25:46;;;;;;;111.10;25.05;;;;;;;;;;5067214;28;20050;-71
2021/12/11 09:28:12;;;;;;;35.85;19.08;;;;;;;;;;5050416;28;20090;-71
2021/12/11 09:30:38;;;;;;;151.65;26.90;;;;;;;;;;5061752;28;20249;-71
2021/12/11 09:33:09;;;;;;;86.40;22.42;;;;;;;;;;5096644;28;20056;-71
2021/12/11 09:35:38;;;;;;;80.20;22.52;;;;;;;;;;5063056;28;20517;-71
2021/12/11 09:38:08;;;;;;;57.05;20.55;;;;;;;;;;5064762;28;20480;-71
2021/12/11 09:40:37;;;;;;;99.22;25.00;;;;;;;;;;5062046;28;20040;-71
2021/12/11 09:43:03;;;;;;;61.67;24.63;;;;;;;;;;5059061;28;20044;-71
2021/12/11 09:45:47;;;;;;;54.72;22.02;;;;;;;;;;5062720;28;20127;-71
2021/12/11 09:48:17;;;;;;;39.60;19.33;;;;;;;;;;5059331;28;20077;-72
2021/12/11 09:50:53;;;;;;;37.70;18.95;;;;;;;;;;5049802;28;20056;-70
2021/12/11 09:53:20;;;;;;;56.22;23.02;;;;;;;;;;5061983;28;20059;-71
2021/12/11 09:55:47;;;;;;;31.90;19.73;;;;;;;;;;5063612;28;20048;-71
2021/12/11 09:58:16;;;;;;;30.75;20.05;;;;;;;;;;5089631;28;20049;-70
2021/12/11 10:01:03;;;;;;;30.73;21.92;;;;;;;;;;5060131;28;20041;-71
2021/12/11 10:03:31;;;;;;;31.58;20.08;;;;;;;;;;5060637;28;20044;-70
2021/12/11 10:06:10;;;;;;;29.23;19.15;;;;;;;;;;5059157;28;20835;-70
2021/12/11 10:08:40;;;;;;;30.63;20.73;;;;;;;;;;5061326;28;20068;-71
2021/12/11 10:11:23;;;;;;;32.00;21.17;;;;;;;;;;5060164;28;20051;-70
2021/12/11 10:13:52;;;;;;;32.88;21.98;;;;;;;;;;5058399;28;20037;-71
2021/12/11 10:16:20;;;;;;;35.13;21.25;;;;;;;;;;5064503;28;20044;-71
2021/12/11 10:18:47;;;;;;;30.60;22.15;;;;;;;;;;5092065;28;20040;-70
2021/12/11 10:21:22;;;;;;;30.52;20.70;;;;;;;;;;5059666;28;20086;-71
2021/12/11 10:23:50;;;;;;;31.25;20.52;;;;;;;;;;5055559;28;20074;-70
2021/12/11 10:26:18;;;;;;;32.28;20.65;;;;;;;;;;5058995;28;20480;-70
2021/12/11 10:28:48;;;;;;;35.78;22.08;;;;;;;;;;5059901;28;20129;-71
2021/12/11 10:31:16;;;;;;;30.05;21.60;;;;;;;;;;5065459;28;20048;-70
2021/12/11 10:33:42;;;;;;;33.22;20.10;;;;;;;;;;5056953;28;20136;-71
2021/12/11 10:36:12;;;;;;;32.78;20.15;;;;;;;;;;5089923;28;20037;-71
2021/12/11 10:38:39;;;;;;;29.52;20.60;;;;;;;;;;5057912;28;20525;-71
2021/12/11 10:41:07;;;;;;;29.13;19.30;;;;;;;;;;5064263;28;20037;-71
2021/12/11 10:43:36;;;;;;;28.73;19.20;;;;;;;;;;5056456;28;20047;-71
2021/12/11 10:46:05;;;;;;;23.80;16.95;;;;;;;;;;5055094;28;20041;-71
2021/12/11 10:48:33;;;;;;;27.40;16.55;;;;;;;;;;5064940;28;20040;-71
2021/12/11 10:51:02;;;;;;;26.52;17.95;;;;;;;;;;5059167;28;20049;-71
2021/12/11 10:53:29;;;;;;;26.77;17.02;;;;;;;;;;5054693;28;20522;-70
2021/12/11 10:55:56;;;;;;;23.88;15.77;;;;;;;;;;5060534;28;20045;-71
2021/12/11 10:58:25;;;;;;;28.00;18.30;;;;;;;;;;5070664;28;20044;-70
2021/12/11 11:00:57;;;;;;;28.10;18.05;;;;;;;;;;5085414;28;20589;-70
2021/12/11 11:03:24;;;;;;;32.95;19.35;;;;;;;;;;5052407;28;20602;-71
2021/12/11 11:05:50;;;;;;;29.23;17.48;;;;;;;;;;5056058;28;20062;-71
2021/12/11 11:08:17;;;;;;;29.83;18.52;;;;;;;;;;5058436;28;20469;-71
2021/12/11 11:10:46;;;;;;;24.50;17.25;;;;;;;;;;5059533;28;20037;-71
2021/12/11 11:13:15;;;;;;;26.58;18.25;;;;;;;;;;5087116;28;20048;-71
2021/12/11 11:15:41;;;;;;;27.90;17.45;;;;;;;;;;5057233;28;20029;-71
2021/12/11 11:18:09;;;;;;;25.25;17.92;;;;;;;;;;5054384;28;20037;-71
2021/12/11 11:20:38;;;;;;;30.35;18.13;;;;;;;;;;5053022;28;20075;-71
2021/12/11 11:23:05;;;;;;;29.02;19.13;;;;;;;;;;5084464;27;20053;-70
2021/12/11 11:25:34;;;;;;;28.85;18.30;;;;;;;;;;5084339;28;20032;-71
2021/12/11 11:28:01;;;;;;;24.42;15.00;;;;;;;;;;5061976;28;20504;-71
2021/12/11 11:30:32;;;;;;;20.63;13.77;;;;;;;;;;5053224;28;20044;-71
2021/12/11 11:32:59;;;;;;;20.75;13.95;;;;;;;;;;5057289;28;20076;-71
2021/12/11 11:35:28;;;;;;;20.50;14.52;;;;;;;;;;5054907;28;20135;-71
2021/12/11 11:37:56;;;;;;;22.88;13.95;;;;;;;;;;5049515;28;20044;-71
2021/12/11 11:40:26;;;;;;;19.23;13.07;;;;;;;;;;5062736;28;20036;-71
2021/12/11 11:42:53;;;;;;;20.98;11.48;;;;;;;;;;5056745;28;20220;-71
2021/12/11 11:45:20;;;;;;;17.65;11.75;;;;;;;;;;5050576;28;20056;-71
2021/12/11 11:47:46;;;;;;;21.55;12.90;;;;;;;;;;5055924;28;20394;-71
2021/12/11 11:50:14;;;;;;;17.90;10.77;;;;;;;;;;5053508;28;20040;-71
2021/12/11 11:52:41;;;;;;;18.27;11.93;;;;;;;;;;5061544;28;20043;-71
2021/12/11 11:55:13;;;;;;;16.00;12.65;;;;;;;;;;5069983;28;20052;-71
2021/12/11 11:57:41;;;;;;;19.75;12.45;;;;;;;;;;5085689;28;20048;-71
2021/12/11 12:00:17;;;;;;;19.92;13.40;;;;;;;;;;5052150;28;20087;-71
2021/12/11 12:02:43;;;;;;;18.95;13.27;;;;;;;;;;5049827;28;20047;-71
2021/12/11 12:05:10;;;;;;;21.08;12.52;;;;;;;;;;5048788;28;20033;-71
2021/12/11 12:07:37;;;;;;;19.17;13.75;;;;;;;;;;5084641;27;20049;-71
2021/12/11 12:10:23;;;;;;;20.25;13.50;;;;;;;;;;5052066;28;20045;-71
2021/12/11 12:12:49;;;;;;;18.10;12.15;;;;;;;;;;5047473;28;20044;-71
2021/12/11 12:15:19;;;;;;;15.52;11.90;;;;;;;;;;5060584;28;20055;-71
2021/12/11 12:17:45;;;;;;;18.27;12.68;;;;;;;;;;5032742;28;20095;-71
2021/12/11 12:20:13;;;;;;;17.00;12.60;;;;;;;;;;5052690;28;20040;-71
2021/12/11 12:22:40;;;;;;;21.38;13.57;;;;;;;;;;5048276;28;20052;-71
2021/12/11 12:25:07;;;;;;;17.55;12.52;;;;;;;;;;5047427;28;20045;-72
2021/12/11 12:27:34;;;;;;;19.30;12.88;;;;;;;;;;5049456;28;20033;-71
2021/12/11 12:30:04;;;;;;;19.55;13.32;;;;;;;;;;5050395;28;20127;-71
2021/12/11 12:32:32;;;;;;;24.92;14.23;;;;;;;;;;5051884;28;20048;-71
2021/12/11 12:35:00;;;;;;;18.40;13.60;;;;;;;;;;5080283;27;20620;-71
2021/12/11 12:37:27;;;;;;;20.02;13.95;;;;;;;;;;5080924;28;20505;-71
2021/12/11 12:39:55;;;;;;;23.00;14.10;;;;;;;;;;5063333;28;20041;-71
2021/12/11 12:42:37;;;;;;;22.92;14.43;;;;;;;;;;5078734;28;20090;-71
2021/12/11 12:45:06;;;;;;;20.80;12.80;;;;;;;;;;5045682;28;20089;-71
2021/12/11 12:47:35;;;;;;;20.70;14.77;;;;;;;;;;5046878;28;20144;-71
2021/12/11 12:50:05;;;;;;;17.63;12.98;;;;;;;;;;5048002;28;20040;-71
2021/12/11 12:52:33;;;;;;;23.60;14.07;;;;;;;;;;5049056;28;20039;-71
2021/12/11 12:55:00;;;;;;;20.13;13.60;;;;;;;;;;5050989;28;20497;-71
2021/12/11 12:57:29;;;;;;;20.80;14.70;;;;;;;;;;5045917;28;20456;-71
2021/12/11 13:00:05;;;;;;;18.05;12.88;;;;;;;;;;5047498;28;20116;-71
2021/12/11 13:02:35;;;;;;;23.20;12.90;;;;;;;;;;5082632;28;20065;-71
2021/12/11 13:05:08;;;;;;;20.98;14.15;;;;;;;;;;5044954;28;20160;-71
2021/12/11 13:07:34;;;;;;;22.00;14.00;;;;;;;;;;5047462;28;20064;-71
2021/12/11 13:10:05;;;;;;;20.70;13.50;;;;;;;;;;5045898;28;20056;-71
2021/12/11 13:12:37;;;;;;;21.25;14.50;;;;;;;;;;5048114;28;20053;-72
2021/12/11 13:15:30;;;;;;;21.73;12.50;;;;;;;;;;5046468;28;20083;-71
2021/12/11 13:17:58;;;;;;;19.63;12.98;;;;;;;;;;5046092;28;20111;-71
2021/12/11 13:20:27;;;;;;;21.67;14.10;;;;;;;;;;5047288;28;20360;-72
2021/12/11 13:22:53;;;;;;;20.13;12.63;;;;;;;;;;5048111;28;20049;-71
2021/12/11 13:25:25;;;;;;;17.58;12.82;;;;;;;;;;5050282;28;20506;-71
2021/12/11 13:27:53;;;;;;;20.75;13.23;;;;;;;;;;5051898;28;20052;-71
2021/12/11 13:30:21;;;;;;;20.60;13.43;;;;;;;;;;5053802;28;20049;-72
2021/12/11 13:32:48;;;;;;;19.38;12.40;;;;;;;;;;5050335;28;20089;-72
2021/12/11 13:35:20;;;;;;;16.58;11.07;;;;;;;;;;5049455;28;20044;-72
2021/12/11 13:37:49;;;;;;;17.27;11.88;;;9.60;77.10;;;;;;5052552;28;20654;-72
2021/12/11 13:40:17;;;;;;;19.02;11.45;;;10.60;98.60;;;;;;5062432;28;20442;-72
2021/12/11 13:42:45;;;;;;;20.98;13.05;;;11.20;96.80;;;;;;5061505;28;20083;-73
2021/12/11 13:45:17;;;;;;;16.10;11.48;;;11.30;95.40;;;;;;5088069;28;20053;-72
2021/12/11 13:47:45;;;;;;;18.23;11.38;;;10.80;94.10;;;;;;5089618;27;20040;-72
2021/12/11 13:50:20;;;;;;;21.25;10.55;;;;;;;;;;5057905;28;20114;-72
2021/12/11 13:52:47;;;;;;;15.40;11.27;;;;;;;;;;5057253;28;20550;-72
2021/12/11 13:55:13;;;;;;;18.17;11.77;;;;;;;;;;5058240;28;20152;-72
2021/12/11 13:57:39;;;;;;;19.35;11.77;;;;;;;;;;5092243;27;20052;-72
2021/12/11 14:00:09;;;;;;;19.17;11.30;;;;;;;;;;5059038;28;20051;-72
2021/12/11 14:02:35;;;;;;;21.15;11.75;;;;;;;;;;5056935;28;20041;-71
2021/12/11 14:05:01;;;;;;;16.25;11.13;;;;;;;;;;5059397;28;20119;-72
2021/12/11 14:07:35;;;;;;;20.20;12.57;;;;;;;;;;5059376;28;20102;-71
2021/12/11 14:10:06;;;;;;;22.40;11.70;;;;;;;;;;5059813;28;20037;-72
2021/12/11 14:12:33;;;;;;;22.30;12.13;;;;;;;;;;5092626;27;20080;-71
2021/12/11 14:15:01;;;;;;;18.23;13.60;;;;;;;;;;5060933;28;20044;-71
2021/12/11 14:17:28;;;;;;;20.27;12.45;;;;;;;;;;5058009;28;20104;-71
2021/12/11 14:19:55;;;;;;;20.77;12.75;;;;;;;;;;5058182;28;20099;-71
2021/12/11 14:22:23;;;;;;;22.73;13.18;;;;;;;;;;5059080;28;20053;-71
2021/12/11 14:24:49;;;;;;;23.63;12.55;;;;;;;;;;5056066;28;20595;-71
2021/12/11 14:27:17;;;;;;;21.45;13.77;;;;;;;;;;5058746;28;20447;-70
2021/12/11 14:29:45;;;;;;;20.58;12.50;;;;;;;;;;5060317;28;20036;-71
2021/12/11 14:32:21;;;;;;;20.65;13.80;;;;;;;;;;5061131;28;20045;-71
2021/12/11 14:34:47;;;;;;;18.30;12.38;;;;;;;;;;5058486;28;20071;-71
2021/12/11 14:37:14;;;;;;;23.48;13.05;;;;;;;;;;5093719;28;20048;-71